Time;durP1;ratioP1;P1;durP2;ratioP2;P2;SDS_P1;SDS_P2;PMS_P1;PMS_P2;Temp;Humidity;BMP_temperature;BMP_pressure;BME280_temperature;BME280_humidity;BME280_pressure;Samples;Min_cycle;Max_cycle;Signal;HPM_P1;HPM_P2
2022/12/23 00:01:18;;;;;;;12.27;3.70;;;;;;;5.44;100.00;95230.34;5045710;28;20476;-78
2022/12/23 00:03:46;;;;;;;11.17;3.73;;;;;;;5.81;100.00;95294.22;5072583;28;20535;-78
2022/12/23 00:06:15;;;;;;;16.63;5.07;;;;;;;5.73;100.00;95287.94;5060576;28;20817;-78
2022/12/23 00:08:42;;;;;;;6.80;3.43;;;;;;;5.52;100.00;95248.63;5060823;28;20441;-77
2022/12/23 00:11:16;;;;;;;8.30;3.20;;;;;;;5.56;100.00;95246.88;5070629;28;20468;-78
2022/12/23 00:16:34;;;;;;;8.83;3.50;;;;;;;5.75;100.00;95271.91;5062464;28;20416;-78
2022/12/23 00:19:00;;;;;;;9.60;3.63;;;;;;;5.79;100.00;95267.53;5041996;28;20437;-78
2022/12/23 00:21:27;;;;;;;12.63;3.77;;;;;;;5.68;100.00;95275.03;5071867;28;20515;-78
2022/12/23 00:23:54;;;;;;;8.03;3.03;;;;;;;5.46;100.00;95243.88;5072084;28;20771;-77
2022/12/23 00:26:25;;;;;;;14.80;3.40;;;;;;;5.19;100.00;95190.13;5062819;28;20435;-77
2022/12/23 00:28:56;;;;;;;9.80;5.90;;;;;;;5.55;100.00;95265.56;5075772;28;20872;-77
2022/12/23 00:31:23;;;;;;;16.90;8.43;;;;;;;5.42;100.00;95225.41;5072133;28;20513;-77
2022/12/23 00:33:53;;;;;;;13.70;5.93;;;;;;;5.57;100.00;95252.91;5055383;28;20500;-78
2022/12/23 00:36:26;;;;;;;8.77;3.90;;;;;;;5.06;100.00;95184.03;5080817;28;20832;-78
2022/12/23 00:44:26;;;;;;;5.23;3.03;;;;;;;5.67;100.00;95246.50;5064836;28;20472;-78
2022/12/23 00:46:52;;;;;;;9.40;3.83;;;;;;;5.64;100.00;95224.31;5072369;28;20486;-78
2022/12/23 00:52:06;;;;;;;8.10;3.17;;;;;;;5.59;100.00;95227.91;5071522;28;20947;-76
2022/12/23 00:54:33;;;;;;;7.10;4.20;;;;;;;5.37;100.00;95211.75;5054941;28;20796;-76
2022/12/23 00:57:00;;;;;;;7.90;4.30;;;;;;;5.38;100.00;95215.91;5063881;28;20531;-76
2022/12/23 00:59:27;;;;;;;7.73;3.90;;;;;;;5.12;100.00;95203.75;5071206;28;20444;-78
2022/12/23 01:07:25;;;;;;;8.07;3.57;;;;;;;5.24;100.00;95203.81;5069909;28;20444;-77
2022/12/23 01:09:51;;;;;;;5.13;2.90;;;;;;;5.12;100.00;95189.88;5060150;28;20424;-77
2022/12/23 01:12:18;;;;;;;8.30;2.90;;;;;;;5.40;100.00;95224.22;5055497;28;20537;-77
2022/12/23 01:14:45;;;;;;;9.50;2.70;;;;;;;5.33;100.00;95214.97;5071111;28;20431;-78
2022/12/23 01:17:12;;;;;;;10.73;3.10;;;;;;;5.12;100.00;95201.13;5071037;28;20535;-78
2022/12/23 01:19:39;;;;;;;10.10;3.17;;;;;;;5.09;100.00;95193.16;5072260;28;20920;-78
2022/12/23 01:22:05;;;;;;;5.47;2.80;;;;;;;5.11;100.00;95199.59;5072113;28;20502;-77
2022/12/23 01:24:32;;;;;;;6.13;3.03;;;;;;;5.02;100.00;95172.69;5063704;28;20432;-77
2022/12/23 01:26:59;;;;;;;7.70;3.07;;;;;;;5.39;100.00;95178.88;5067303;28;20424;-77
2022/12/23 01:29:26;;;;;;;20.00;6.77;;;;;;;5.48;100.00;95205.03;5054598;28;20464;-77
2022/12/23 01:31:53;;;;;;;10.93;7.90;;;;;;;5.23;100.00;95191.81;5070489;28;20466;-77
2022/12/23 01:34:22;;;;;;;9.93;6.13;;;;;;;5.20;100.00;95194.28;5070931;28;20478;-77
2022/12/23 01:36:49;;;;;;;9.63;3.80;;;;;;;5.02;100.00;95177.91;5040775;28;20533;-77
2022/12/23 01:39:16;;;;;;;6.20;3.03;;;;;;;5.12;100.00;95198.50;5072350;28;20435;-77
2022/12/23 01:44:52;;;;;;;62.17;9.10;;;;;;;5.10;100.00;95192.81;5070327;28;20882;-76
2022/12/23 01:47:57;;;;;;;16.67;4.87;;;;;;;4.75;100.00;95161.59;5075274;28;20451;-76
2022/12/23 01:50:30;;;;;;;6.50;3.50;;;;;;;4.72;100.00;95185.81;5009577;28;20777;-75
2022/12/23 01:52:56;;;;;;;7.60;4.30;;;;;;;4.74;100.00;95188.88;5038905;28;21014;-75
2022/12/23 01:55:31;;;;;;;23.60;5.30;;;;;;;4.83;100.00;95191.44;5065288;28;20457;-76
2022/12/23 01:58:10;;;;;;;12.90;3.77;;;;;;;4.51;100.00;95160.66;5073331;28;20847;-76
2022/12/23 02:03:42;;;;;;;7.60;4.23;;;;;;;4.72;100.00;95164.88;5059231;28;20448;-75
2022/12/23 02:09:17;;;;;;;12.10;5.30;;;;;;;4.83;100.00;95185.44;5056497;28;20483;-75
2022/12/23 02:12:11;;;;;;;7.53;3.70;;;;;;;4.91;100.00;95184.59;5069788;28;20984;-75
2022/12/23 02:18:10;;;;;;;5.07;2.73;;;;;;;5.24;100.00;95179.47;5057655;28;20495;-77
2022/12/23 02:20:43;;;;;;;4.67;3.27;;;;;;;5.35;100.00;95180.63;5056342;28;20439;-77
2022/12/23 02:23:22;;;;;;;4.13;3.43;;;;;;;5.41;100.00;95181.94;5043520;28;20472;-75
2022/12/23 02:26:10;;;;;;;7.60;2.73;;;;;;;5.37;100.00;95173.22;5063068;28;20468;-75
2022/12/23 02:28:46;;;;;;;5.83;2.80;;;;;;;5.39;100.00;95180.75;5048198;28;20848;-75
2022/12/23 02:31:25;;;;;;;8.63;3.20;;;;;;;5.39;100.00;95178.13;5071042;28;20420;-75
2022/12/23 02:34:02;;;;;;;9.60;4.33;;;;;;;5.39;100.00;95180.75;5048526;28;20472;-75
2022/12/23 02:36:47;;;;;;;5.77;3.50;;;;;;;5.51;100.00;95192.06;5045391;28;20424;-75
2022/12/23 02:39:23;;;;;;;5.70;3.03;;;;;;;5.42;100.00;95199.22;5057704;28;20438;-75
2022/12/23 02:41:59;;;;;;;5.53;3.30;;;;;;;5.19;100.00;95175.16;5066656;28;20963;-75
2022/12/23 02:44:31;;;;;;;5.77;3.40;;;;;;;5.25;100.00;95205.34;5044146;28;20444;-75
2022/12/23 02:47:06;;;;;;;8.63;3.87;;;;;;;5.14;100.00;95192.94;5070345;28;20432;-75
2022/12/23 02:49:36;;;;;;;4.10;2.80;;;;;;;4.99;100.00;95178.56;5084752;28;20419;-75
2022/12/23 02:52:10;;;;;;;11.13;3.40;;;;;;;5.10;100.00;95164.00;5069881;28;20797;-75
2022/12/23 02:54:43;;;;;;;5.70;2.87;;;;;;;5.17;100.00;95166.88;5039563;28;20441;-76
2022/12/23 02:57:13;;;;;;;5.97;3.10;;;;;;;5.28;100.00;95175.13;5086135;28;20498;-76
2022/12/23 02:59:47;;;;;;;4.93;3.60;;;;;;;5.22;100.00;95182.41;5057067;28;20550;-76
2022/12/23 03:02:14;;;;;;;10.20;3.10;;;;;;;5.00;100.00;95175.63;5069320;28;20455;-76
2022/12/23 03:04:41;;;;;;;7.27;3.53;;;;;;;4.88;100.00;95151.22;5057295;28;20435;-76
2022/12/23 03:07:19;;;;;;;3.63;3.33;;;;;;;4.99;100.00;95175.94;5069323;28;20440;-76
2022/12/23 03:10:00;;;;;;;10.40;5.00;;;;;;;5.01;100.00;95163.28;5069162;28;20493;-77
2022/12/23 03:12:45;;;;;;;10.93;5.17;;;;;;;5.03;100.00;95174.22;5068983;28;21003;-76
2022/12/23 03:15:34;;;;;;;6.60;3.60;;;;;;;5.08;100.00;95153.09;5069277;28;20485;-76
2022/12/23 03:18:32;;;;;;;5.00;3.83;;;;;;;5.20;100.00;95165.47;5073643;28;20876;-76
2022/12/23 03:21:07;;;;;;;5.47;3.30;;;;;;;5.10;100.00;95150.16;5063571;28;20457;-76
2022/12/23 03:23:44;;;;;;;3.57;2.87;;;;;;;5.11;100.00;95172.63;5062228;28;21005;-76
2022/12/23 03:26:26;;;;;;;5.20;3.50;;;;;;;4.87;100.00;95145.22;5042180;28;20439;-76
2022/12/23 03:29:10;;;;;;;7.37;4.80;;;;;;;5.01;100.00;95171.16;5069151;28;20522;-76
2022/12/23 03:31:40;;;;;;;6.90;4.77;;;;;;;4.77;100.00;95160.53;5061608;28;20417;-77
2022/12/23 03:34:15;;;;;;;9.90;4.80;;;;;;;4.75;100.00;95151.13;5059355;28;20468;-77
2022/12/23 03:36:48;;;;;;;24.17;8.47;;;;;;;4.90;100.00;95167.38;5073010;28;20514;-76
2022/12/23 03:39:21;;;;;;;24.93;8.53;;;;;;;4.81;100.00;95151.72;5072973;28;20497;-76
2022/12/23 03:41:55;;;;;;;18.90;7.00;;;;;;;4.61;100.00;95116.56;5060586;28;20439;-77
2022/12/23 03:44:29;;;;;;;9.50;5.40;;;;;;;4.98;100.00;95167.31;5072783;28;20528;-78
2022/12/23 03:47:08;;;;;;;9.50;4.50;;;;;;;4.96;100.00;95164.25;5068326;28;20468;-76
2022/12/23 03:49:42;;;;;;;5.03;3.67;;;;;;;4.99;100.00;95170.72;5084695;28;20442;-76
2022/12/23 03:52:13;;;;;;;8.50;3.73;;;;;;;4.96;100.00;95169.50;5072706;28;20422;-76
2022/12/23 03:54:56;;;;;;;6.03;3.70;;;;;;;4.83;100.00;95164.50;5059505;28;20813;-76
2022/12/23 03:57:57;;;;;;;4.77;2.87;;;;;;;4.88;100.00;95172.16;5065612;28;20416;-77
2022/12/23 04:00:29;;;;;;;3.90;3.60;;;;;;;4.86;100.00;95174.34;5061116;28;20448;-77
2022/12/23 04:03:13;;;;;;;8.67;3.90;;;;;;;4.83;100.00;95174.97;5042397;28;20456;-76
2022/12/23 04:05:44;;;;;;;25.83;4.93;;;;;;;4.58;100.00;95153.09;5079506;28;20519;-76
2022/12/23 04:08:33;;;;;;;20.83;4.63;;;;;;;4.70;100.00;95184.59;5042997;28;20523;-76
2022/12/23 04:11:01;;;;;;;6.90;3.70;;;;;;;4.61;100.00;95178.63;5058919;28;20535;-76
2022/12/23 04:13:29;;;;;;;3.90;2.70;;;;;;;4.53;100.00;95185.44;5061379;28;20469;-77
2022/12/23 04:16:00;;;;;;;6.57;3.63;;;;;;;4.38;100.00;95162.41;5067328;28;20520;-76
2022/12/23 04:18:27;;;;;;;5.43;2.90;;;;;;;4.33;100.00;95162.59;5065215;28;20424;-76
2022/12/23 04:20:54;;;;;;;4.67;4.27;;;;;;;4.31;100.00;95151.69;5050394;28;20499;-76
2022/12/23 04:23:21;;;;;;;5.17;3.60;;;;;;;4.44;100.00;95174.25;5064276;28;20451;-76
2022/12/23 04:25:47;;;;;;;5.03;3.37;;;;;;;4.38;100.00;95163.19;5059842;28;20746;-76
2022/12/23 04:28:14;;;;;;;8.13;4.23;;;;;;;4.54;100.00;95166.06;5059811;28;20441;-76
2022/12/23 04:30:41;;;;;;;4.93;3.60;;;;;;;4.39;100.00;95158.72;5054368;28;20432;-77
2022/12/23 04:33:10;;;;;;;4.03;3.73;;;;;;;4.27;100.00;95148.91;5043459;28;20546;-77
2022/12/23 04:35:37;;;;;;;5.00;3.20;;;;;;;4.45;100.00;95181.00;5070864;28;20531;-76
2022/12/23 04:38:03;;;;;;;9.70;4.17;;;;;;;4.43;100.00;95181.34;5071884;28;20986;-76
2022/12/23 04:40:30;;;;;;;4.70;4.20;;;;;;;4.49;100.00;95178.53;5041256;28;20540;-76
2022/12/23 04:42:57;;;;;;;6.13;3.63;;;;;;;4.49;100.00;95171.44;5071524;28;20555;-76
2022/12/23 04:45:23;;;;;;;4.80;4.13;;;;;;;4.53;100.00;95176.81;5073240;28;20432;-76
2022/12/23 04:47:50;;;;;;;5.80;3.53;;;;;;;4.49;100.00;95165.44;5069397;28;20421;-77
2022/12/23 04:50:17;;;;;;;15.00;4.80;;;;;;;4.26;100.00;95136.16;5086462;28;20516;-77
2022/12/23 04:52:43;;;;;;;58.20;8.20;;;;;;;4.42;100.00;95179.03;5071531;28;20465;-77
2022/12/23 04:55:10;;;;;;;31.17;6.77;;;;;;;4.31;100.00;95164.75;5074519;28;20432;-77
2022/12/23 04:57:37;;;;;;;16.93;5.10;;;;;;;4.40;100.00;95183.78;5077786;28;20519;-77
2022/12/23 05:00:04;;;;;;;5.07;4.33;;;;;;;4.27;100.00;95187.38;5072933;28;20427;-77
2022/12/23 05:02:31;;;;;;;5.73;4.63;;;;;;;4.08;100.00;95162.38;5059628;28;20473;-77
2022/12/23 05:04:58;;;;;;;5.73;4.10;;;;;;;4.28;100.00;95187.09;5048024;28;20433;-77
2022/12/23 05:07:24;;;;;;;14.23;6.23;;;;;;;4.24;100.00;95188.00;5064877;28;20443;-77
2022/12/23 05:09:51;;;;;;;6.77;4.80;;;;;;;4.35;100.00;95191.81;5058554;28;20432;-77
2022/12/23 05:12:18;;;;;;;5.90;5.00;;;;;;;4.17;100.00;95154.50;5070696;28;20449;-77
2022/12/23 05:14:45;;;;;;;7.10;4.23;;;;;;;4.25;100.00;95179.84;5060073;28;20998;-77
2022/12/23 05:17:11;;;;;;;6.60;3.50;;;;;;;4.28;100.00;95183.72;5058188;28;20467;-77
2022/12/23 05:19:38;;;;;;;4.30;3.90;;;;;;;4.29;100.00;95183.41;5063573;28;20433;-77
2022/12/23 05:22:07;;;;;;;5.07;3.63;;;;;;;4.23;100.00;95176.78;5065304;28;20532;-77
2022/12/23 05:24:33;;;;;;;4.40;3.70;;;;;;;4.37;100.00;95192.28;5070931;28;20519;-77
2022/12/23 05:27:00;;;;;;;2.20;2.00;;;;;;;4.52;100.00;95196.97;5069379;28;20519;-76
2022/12/23 05:29:27;;;;;;;4.23;2.83;;;;;;;4.49;100.00;95191.63;5059412;28;20485;-77
2022/12/23 05:31:53;;;;;;;3.60;3.20;;;;;;;4.58;100.00;95205.44;5070818;28;20799;-77
2022/12/23 05:34:21;;;;;;;12.33;4.13;;;;;;;4.35;100.00;95179.50;5062069;28;20469;-76
2022/12/23 05:36:47;;;;;;;4.47;4.10;;;;;;;4.43;100.00;95189.19;5065332;28;20436;-77
2022/12/23 05:39:14;;;;;;;118.23;13.80;;;;;;;4.38;100.00;95181.50;5060796;28;20520;-77
2022/12/23 05:41:41;;;;;;;53.80;7.53;;;;;;;4.41;100.00;95201.06;5058466;28;20444;-77
2022/12/23 05:44:07;;;;;;;14.43;7.17;;;;;;;4.45;100.00;95213.19;5054500;28;20919;-75
2022/12/23 05:46:34;;;;;;;52.20;10.27;;;;;;;4.34;100.00;95190.28;5068418;28;20420;-75
2022/12/23 05:49:01;;;;;;;25.97;6.87;;;;;;;4.52;100.00;95215.28;5057243;28;20489;-75
2022/12/23 05:51:27;;;;;;;10.80;5.47;;;;;;;4.48;100.00;95222.25;5057289;28;20449;-75
2022/12/23 05:53:54;;;;;;;11.23;4.57;;;;;;;4.35;100.00;95184.75;5053552;28;20555;-75
2022/12/23 05:56:21;;;;;;;6.13;4.57;;;;;;;4.57;100.00;95209.91;5076639;28;20428;-75
2022/12/23 05:58:47;;;;;;;6.20;5.47;;;;;;;4.59;100.00;95192.03;5071637;28;20558;-75
2022/12/23 06:01:14;;;;;;;6.13;5.53;;;;;;;4.56;100.00;95191.91;5071537;28;20432;-75
2022/12/23 06:03:41;;;;;;;9.03;4.43;;;;;;;4.49;100.00;95223.00;5080119;28;20529;-76
2022/12/23 06:06:07;;;;;;;14.70;5.87;;;;;;;4.26;100.00;95199.69;5067866;28;20528;-75
2022/12/23 06:08:34;;;;;;;22.33;6.93;;;;;;;4.19;100.00;95201.28;5060627;28;20428;-76
2022/12/23 06:11:04;;;;;;;14.50;5.70;;;;;;;4.13;100.00;95217.13;5056652;28;20424;-75
2022/12/23 06:13:31;;;;;;;48.13;11.30;;;;;;;4.30;100.00;95226.78;5070770;28;20543;-75
2022/12/23 06:15:57;;;;;;;30.70;7.50;;;;;;;4.19;100.00;95212.50;5058682;28;20442;-76
2022/12/23 06:18:24;;;;;;;19.63;8.90;;;;;;;4.06;100.00;95188.06;5069868;28;20467;-76
2022/12/23 06:20:53;;;;;;;55.90;10.57;;;;;;;4.30;100.00;95184.16;5056034;28;20479;-76
2022/12/23 06:23:20;;;;;;;6.93;6.23;;;;;;;4.62;100.00;95222.81;5059487;28;20445;-75
2022/12/23 06:25:46;;;;;;;6.73;5.40;;;;;;;4.77;100.00;95228.59;5069803;28;20523;-75
2022/12/23 06:28:13;;;;;;;13.50;8.60;;;;;;;4.50;100.00;95229.78;5071247;28;20943;-75
2022/12/23 06:30:40;;;;;;;11.50;6.63;;;;;;;4.29;100.00;95212.16;5051433;28;20437;-77
2022/12/23 06:33:06;;;;;;;11.67;6.57;;;;;;;4.27;100.00;95214.31;5061777;28;21006;-77
2022/12/23 06:35:33;;;;;;;7.27;5.40;;;;;;;4.15;100.00;95196.69;5047287;28;20523;-77
2022/12/23 06:38:00;;;;;;;5.13;4.63;;;;;;;4.37;100.00;95202.75;5061735;28;20519;-77
2022/12/23 06:40:27;;;;;;;5.47;4.30;;;;;;;4.87;100.00;95243.94;5055925;28;20451;-77
2022/12/23 06:42:54;;;;;;;5.90;3.50;;;;;;;5.24;100.00;95248.34;5052942;28;20853;-77
2022/12/23 06:45:21;;;;;;;3.13;2.43;;;;;;;5.45;100.00;95250.97;5069343;28;20854;-76
2022/12/23 06:47:48;;;;;;;2.50;2.30;;;;;;;5.51;100.00;95251.56;5065734;28;20443;-77
2022/12/23 06:50:14;;;;;;;2.70;2.50;;;;;;;5.38;100.00;95210.66;5082695;28;20432;-77
2022/12/23 06:52:41;;;;;;;1.70;1.40;;;;;;;5.89;100.00;95249.56;5068774;28;20974;-77
2022/12/23 06:55:28;;;;;;;1.43;1.30;;;;;;;5.97;100.00;95245.34;5042198;28;21006;-77
2022/12/23 06:57:55;;;;;;;1.20;1.10;;;;;;;5.95;100.00;95244.13;5011554;28;20443;-77
2022/12/23 07:00:22;;;;;;;3.00;1.70;;;;;;;6.11;100.00;95271.31;4975986;28;20441;-77
2022/12/23 07:02:48;;;;;;;1.90;1.70;;;;;;;6.01;100.00;95264.63;4972152;28;20562;-77
2022/12/23 07:05:15;;;;;;;1.37;1.27;;;;;;;5.98;100.00;95253.97;5001279;28;20493;-77
2022/12/23 07:07:42;;;;;;;2.57;2.37;;;;;;;6.06;100.00;95282.00;4999152;28;20537;-77
2022/12/23 07:10:09;;;;;;;1.80;1.70;;;;;;;5.83;100.00;95271.81;4985499;28;20491;-77
2022/12/23 07:12:36;;;;;;;2.10;1.80;;;;;;;5.99;100.00;95311.38;5009476;28;21100;-77
2022/12/23 07:15:04;;;;;;;2.27;2.17;;;;;;;5.89;100.00;95315.13;5012224;28;20476;-77
2022/12/23 07:17:31;;;;;;;2.53;2.00;;;;;;;5.67;100.00;95281.38;4998926;28;20518;-77
2022/12/23 07:19:58;;;;;;;2.60;2.40;;;;;;;5.98;100.00;95304.59;5012040;28;20522;-77
2022/12/23 07:22:24;;;;;;;2.27;1.93;;;;;;;5.95;100.00;95310.47;4979201;28;20462;-77
2022/12/23 07:24:51;;;;;;;2.97;2.77;;;;;;;5.86;100.00;95292.16;5012070;28;20463;-77
2022/12/23 07:27:18;;;;;;;2.60;2.17;;;;;;;6.09;100.00;95303.09;4990956;28;20443;-77
2022/12/23 07:29:44;;;;;;;2.23;1.90;;;;;;;6.20;100.00;95324.47;4984196;28;20445;-77
2022/12/23 07:32:11;;;;;;;3.50;2.17;;;;;;;5.98;100.00;95333.44;4997318;28;20522;-77
2022/12/23 07:34:38;;;;;;;2.93;2.40;;;;;;;6.02;100.00;95339.59;4992744;28;20475;-77
2022/12/23 07:37:04;;;;;;;21.63;11.30;;;;;;;5.93;100.00;95329.16;5049511;28;20425;-77
2022/12/23 07:39:31;;;;;;;5.40;4.90;;;;;;;5.72;100.00;95325.75;5064361;28;20540;-77
2022/12/23 07:41:57;;;;;;;3.80;3.40;;;;;;;5.64;100.00;95314.25;5060547;28;20534;-77
2022/12/23 07:44:44;;;;;;;4.13;3.73;;;;;;;5.98;100.00;95319.56;5072298;28;20814;-77
2022/12/23 07:47:11;;;;;;;3.70;3.40;;;;;;;5.89;100.00;95344.00;5073848;28;20464;-77
2022/12/23 07:49:37;;;;;;;5.00;2.60;;;;;;;5.59;100.00;95324.13;5055838;28;20909;-77
2022/12/23 07:52:04;;;;;;;3.10;2.47;;;;;;;5.77;100.00;95343.91;5048596;28;20967;-78
2022/12/23 07:54:30;;;;;;;3.27;2.30;;;;;;;5.59;100.00;95311.78;5069274;28;20952;-77
2022/12/23 07:56:57;;;;;;;2.20;2.00;;;;;;;5.83;100.00;95332.13;5065254;28;20851;-77
2022/12/23 07:59:25;;;;;;;2.67;2.47;;;;;;;5.94;100.00;95340.44;5063368;28;20429;-78
2022/12/23 08:01:52;;;;;;;3.20;2.90;;;;;;;5.87;100.00;95316.53;5066582;28;20808;-78
2022/12/23 08:04:19;;;;;;;3.20;3.00;;;;;;;6.05;100.00;95346.84;5051989;28;20440;-78
2022/12/23 08:06:46;;;;;;;4.80;4.40;;;;;;;6.01;100.00;95324.97;5064397;28;20431;-77
2022/12/23 08:09:13;;;;;;;4.00;3.70;;;;;;;5.95;100.00;95336.72;5045493;28;20449;-77
2022/12/23 08:11:39;;;;;;;3.83;3.53;;;;;;;5.94;100.00;95316.81;5077087;28;20424;-77
2022/12/23 08:14:06;;;;;;;3.23;2.90;;;;;;;5.50;100.00;95295.38;5059128;28;21000;-77
2022/12/23 08:16:33;;;;;;;2.87;2.67;;;;;;;5.54;100.00;95308.59;5075594;28;20444;-77
2022/12/23 08:19:08;;;;;;;3.90;3.13;;;;;;;5.52;100.00;95308.91;5076532;28;20931;-77
2022/12/23 08:21:35;;;;;;;2.93;2.67;;;;;;;5.57;100.00;95328.94;5075637;28;20556;-77
2022/12/23 08:24:02;;;;;;;11.53;3.60;;;;;;;5.57;100.00;95321.06;5063200;28;20451;-77
2022/12/23 08:26:28;;;;;;;2.47;2.27;;;;;;;5.82;100.00;95346.34;5066807;28;20902;-77
2022/12/23 08:28:55;;;;;;;2.57;2.37;;;;;;;5.84;100.00;95353.88;5071496;28;20537;-78
2022/12/23 08:31:26;;;;;;;5.70;4.57;;;;;;;5.80;100.00;95338.03;5068447;28;20486;-77
2022/12/23 08:33:55;;;;;;;7.33;4.67;;;;;;;5.93;100.00;95358.03;5054606;28;20985;-77
2022/12/23 08:36:25;;;;;;;5.13;4.63;;;;;;;6.02;100.00;95367.69;5052996;28;20861;-77
2022/12/23 08:38:54;;;;;;;12.17;11.00;;;;;;;5.87;100.00;95351.38;5063929;28;20964;-77
2022/12/23 08:41:25;;;;;;;11.30;10.40;;;;;;;5.96;100.00;95368.97;5084717;28;20439;-77
2022/12/23 08:43:52;;;;;;;7.00;6.40;;;;;;;6.04;100.00;95363.66;5064753;28;20448;-77
2022/12/23 08:46:19;;;;;;;4.30;3.13;;;;;;;6.02;100.00;95346.72;5076859;28;20447;-78
2022/12/23 08:48:46;;;;;;;6.03;5.53;;;;;;;6.16;100.00;95370.84;5065003;28;20436;-77
2022/12/23 08:51:17;;;;;;;5.30;4.80;;;;;;;5.91;100.00;95346.31;5082879;28;20954;-77
2022/12/23 08:53:45;;;;;;;3.30;3.00;;;;;;;5.97;100.00;95360.00;5076302;28;20462;-77
2022/12/23 08:56:15;;;;;;;2.20;2.00;;;;;;;5.93;100.00;95349.38;5082180;28;20526;-77
2022/12/23 08:58:44;;;;;;;1.30;1.20;;;;;;;6.22;100.00;95377.41;5068687;28;20417;-77
2022/12/23 09:01:14;;;;;;;2.67;1.90;;;;;;;6.27;100.00;95374.56;5068982;28;21007;-77
2022/12/23 09:03:41;;;;;;;1.97;1.57;;;;;;;6.48;100.00;95392.94;5049630;28;20463;-77
2022/12/23 09:06:11;;;;;;;2.20;2.10;;;;;;;6.21;100.00;95350.41;5062126;28;20443;-77
2022/12/23 09:08:38;;;;;;;2.20;2.00;;;;;;;6.61;100.00;95414.75;5063668;28;20528;-78
2022/12/23 09:11:10;;;;;;;2.30;2.20;;;;;;;6.58;100.00;95403.06;5081024;28;20949;-78
2022/12/23 09:13:37;;;;;;;1.60;1.50;;;;;;;6.78;100.00;95425.88;5062472;28;20864;-76
2022/12/23 09:16:05;;;;;;;2.20;2.00;;;;;;;6.78;100.00;95430.34;5064703;28;20437;-77
2022/12/23 09:18:32;;;;;;;4.93;1.87;;;;;;;6.68;100.00;95410.53;5046655;28;20486;-77
2022/12/23 09:21:01;;;;;;;2.27;2.07;;;;;;;6.95;100.00;95432.84;5071088;28;20435;-77
2022/12/23 09:23:28;;;;;;;1.77;1.67;;;;;;;6.70;100.00;95384.72;5070617;28;20623;-77
2022/12/23 09:25:55;;;;;;;2.47;2.10;;;;;;;6.93;100.00;95421.09;5070466;28;20436;-77
2022/12/23 09:28:22;;;;;;;1.80;1.70;;;;;;;6.61;100.00;95355.13;5078944;28;20502;-77
2022/12/23 09:30:49;;;;;;;1.93;0.97;;;;;;;6.99;100.00;95428.47;5071239;28;20483;-77
2022/12/23 09:33:16;;;;;;;1.53;1.23;;;;;;;7.06;100.00;95412.16;5054752;28;20498;-77
2022/12/23 09:35:43;;;;;;;2.67;2.47;;;;;;;7.22;100.00;95422.81;5061020;28;20490;-78
2022/12/23 09:38:10;;;;;;;2.50;2.30;;;;;;;7.01;100.00;95386.09;5073261;28;20432;-78
2022/12/23 09:40:39;;;;;;;1.87;1.73;;;;;;;7.04;100.00;95393.31;5045677;28;20436;-79
2022/12/23 09:43:28;;;;;;;1.43;1.33;;;;;;;6.98;100.00;95390.16;5063592;28;20497;-77
2022/12/23 09:46:24;;;;;;;4.00;3.43;;;;;;;7.37;100.00;95440.59;5073953;28;20425;-79
2022/12/23 09:48:59;;;;;;;2.03;1.93;;;;;;;7.22;100.00;95420.97;5082470;28;20436;-78
2022/12/23 09:51:27;;;;;;;1.30;1.20;;;;;;;7.05;100.00;95414.00;5072878;28;20792;-78
2022/12/23 09:54:14;;;;;;;2.50;2.30;;;;;;;7.35;100.00;95434.91;5074203;28;20548;-79
2022/12/23 09:56:50;;;;;;;1.70;1.60;;;;;;;7.39;100.00;95438.41;5083628;28;20810;-79
2022/12/23 09:59:36;;;;;;;1.37;1.27;;;;;;;7.30;100.00;95427.19;5075472;28;20442;-79
2022/12/23 10:02:25;;;;;;;1.23;1.10;;;;;;;7.47;100.00;95445.41;5047864;28;20444;-79
2022/12/23 10:05:02;;;;;;;1.27;1.13;;;;;;;7.53;100.00;95446.72;5074050;28;20488;-79
2022/12/23 10:07:38;;;;;;;1.93;1.27;;;;;;;7.57;100.00;95452.88;5073841;28;20989;-79
2022/12/23 10:10:15;;;;;;;1.30;1.20;;;;;;;7.41;100.00;95429.09;5057721;28;20497;-79
2022/12/23 10:12:46;;;;;;;1.07;1.00;;;;;;;7.35;100.00;95422.50;5074915;28;20466;-79
2022/12/23 10:15:27;;;;;;;1.67;1.43;;;;;;;7.33;100.00;95426.53;5075511;28;20509;-79
2022/12/23 10:17:57;;;;;;;2.80;1.97;;;;;;;7.33;100.00;95418.66;5074042;28;20501;-79
2022/12/23 10:20:40;;;;;;;2.63;2.43;;;;;;;7.29;100.00;95417.78;5073643;28;20500;-79
2022/12/23 10:23:16;;;;;;;9.37;3.80;;;;;;;7.48;100.00;95451.44;5063057;28;20495;-79
2022/12/23 10:25:49;;;;;;;6.40;4.47;;;;;;;7.57;100.00;95455.50;5076733;28;20851;-79
2022/12/23 10:28:17;;;;;;;7.17;4.90;;;;;;;7.65;100.00;95456.50;5057148;28;20878;-79
2022/12/23 10:30:52;;;;;;;3.27;2.43;;;;;;;7.25;100.00;95388.00;5074607;28;20846;-79
2022/12/23 10:33:58;;;;;;;16.43;7.17;;;;;;;7.03;100.00;95347.88;5072997;28;20535;-80
2022/12/23 10:36:39;;;;;;;6.80;3.40;;;;;;;7.53;100.00;95438.84;5056162;28;20441;-80
2022/12/23 10:39:30;;;;;;;3.43;2.57;;;;;;;7.55;100.00;95449.03;5062402;28;20478;-79
2022/12/23 10:42:30;;;;;;;2.20;2.00;;;;;;;7.74;100.00;95466.91;5047864;28;20432;-78
2022/12/23 10:45:23;;;;;;;3.10;2.17;;;;;;;7.59;100.00;95448.03;5056424;28;20882;-77
2022/12/23 10:48:08;;;;;;;1.57;1.47;;;;;;;7.65;100.00;95467.03;5061793;28;20436;-81
2022/12/23 10:51:02;;;;;;;4.53;2.30;;;;;;;7.60;100.00;95462.72;5044636;28;20433;-79
2022/12/23 10:53:38;;;;;;;1.70;1.17;;;;;;;7.69;100.00;95483.69;5079330;28;20448;-80
2022/12/23 10:56:06;;;;;;;2.10;1.63;;;;;;;7.76;100.00;95477.88;5082620;28;20458;-79
2022/12/23 10:58:37;;;;;;;4.73;2.67;;;;;;;7.78;100.00;95479.09;5063739;28;20956;-79
2022/12/23 11:01:06;;;;;;;2.57;2.37;;;;;;;7.68;100.00;95477.66;5053459;28;20450;-79
2022/12/23 11:03:53;;;;;;;1.77;1.67;;;;;;;7.56;100.00;95451.34;5073886;28;20491;-79
2022/12/23 11:06:20;;;;;;;1.83;1.70;;;;;;;7.76;100.00;95480.50;5056469;28;20489;-77
2022/12/23 11:08:47;;;;;;;1.73;1.63;;;;;;;7.68;100.00;95459.22;5055262;28;20432;-78
2022/12/23 11:11:13;;;;;;;2.07;1.80;;;;;;;7.59;100.00;95442.00;5066062;28;21008;-77
2022/12/23 11:13:45;;;;;;;1.80;1.70;;;;;;;7.66;100.00;95445.66;5065429;28;20478;-77
2022/12/23 11:16:27;;;;;;;3.57;2.67;;;;;;;7.88;100.00;95477.88;5041214;28;20530;-76
2022/12/23 11:19:08;;;;;;;1.90;1.70;;;;;;;7.88;100.00;95481.28;5052667;28;20444;-76
2022/12/23 11:21:35;;;;;;;2.67;1.80;;;;;;;7.63;100.00;95427.13;5069967;28;20446;-76
2022/12/23 11:24:06;;;;;;;1.40;1.30;;;;;;;7.78;100.00;95444.88;5067847;28;20524;-76
2022/12/23 11:26:35;;;;;;;2.27;2.00;;;;;;;7.82;100.00;95452.88;5066293;28;20432;-77
2022/12/23 11:29:11;;;;;;;3.90;3.30;;;;;;;7.83;100.00;95436.75;5071957;28;20807;-77
2022/12/23 11:31:41;;;;;;;2.07;1.87;;;;;;;7.98;100.00;95461.63;5048641;28;20437;-78
2022/12/23 11:34:15;;;;;;;1.80;1.27;;;;;;;7.96;100.00;95464.59;5055858;28;20851;-79
2022/12/23 11:36:43;;;;;;;2.23;1.37;;;;;;;7.82;100.00;95451.00;5073450;28;20446;-78
2022/12/23 11:39:22;;;;;;;1.50;1.30;;;;;;;7.99;100.00;95465.81;5056431;28;20439;-78
2022/12/23 11:41:52;;;;;;;1.53;1.43;;;;;;;8.00;100.00;95465.47;5073081;28;20427;-79
2022/12/23 11:44:41;;;;;;;1.77;1.67;;;;;;;7.95;100.00;95457.03;5055323;28;20504;-78
2022/12/23 11:47:32;;;;;;;1.00;0.90;;;;;;;8.09;100.00;95467.22;5059837;28;20416;-78
2022/12/23 11:50:02;;;;;;;1.03;1.00;;;;;;;7.97;100.00;95441.69;5084168;28;20464;-79
2022/12/23 11:52:31;;;;;;;1.03;0.93;;;;;;;7.92;100.00;95447.94;5079225;28;20475;-78
2022/12/23 11:55:01;;;;;;;1.20;1.10;;;;;;;8.05;100.00;95461.09;5066090;28;20496;-78
2022/12/23 11:57:41;;;;;;;2.20;2.00;;;;;;;7.93;100.00;95425.03;5087598;28;20421;-79
2022/12/23 12:00:37;;;;;;;1.77;1.10;;;;;;;7.77;100.00;95408.38;5063236;28;20436;-79
2022/12/23 12:03:06;;;;;;;1.00;0.90;;;;;;;7.73;100.00;95426.66;5074486;28;20532;-79
2022/12/23 12:05:47;;;;;;;1.30;1.20;;;;;;;7.92;100.00;95447.94;5069354;28;20514;-78
2022/12/23 12:08:19;;;;;;;1.00;0.90;;;;;;;7.88;100.00;95452.34;5045216;28;20522;-79
2022/12/23 12:10:49;;;;;;;1.20;1.10;;;;;;;7.72;100.00;95423.28;5053164;28;21018;-78
2022/12/23 12:13:24;;;;;;;3.27;1.20;;;;;;;7.71;100.00;95410.44;5075173;28;20486;-79
2022/12/23 12:16:27;;;;;;;2.90;1.20;;;;;;;7.95;100.00;95441.25;5076304;28;20546;-79
2022/12/23 12:19:00;;;;;;;2.73;1.30;;;;;;;7.84;100.00;95419.88;5024899;28;20897;-79
2022/12/23 12:21:31;;;;;;;1.10;1.00;;;;;;;7.83;100.00;95433.34;5075544;28;20444;-80